createdAt,value
2023-03-31T00:01:42.273Z,1.40
2023-03-31T00:04:09.971Z,1.90
2023-03-31T00:06:42.019Z,1.90
2023-03-31T00:09:11.568Z,1.73
2023-03-31T00:11:38.824Z,1.92
2023-03-31T00:14:07.383Z,2.40
2023-03-31T00:16:37.826Z,3.38
2023-03-31T00:19:05.269Z,2.60
2023-03-31T00:21:34.839Z,2.55
2023-03-31T00:24:03.283Z,3.20
2023-03-31T00:26:29.929Z,3.40
2023-03-31T00:31:22.961Z,3.50
2023-03-31T00:33:50.079Z,4.88
2023-03-31T00:36:27.577Z,4.20
2023-03-31T00:38:55.161Z,4.80
2023-03-31T00:41:22.596Z,4.97
2023-03-31T00:44:08.633Z,6.80
2023-03-31T00:47:07.195Z,5.88
2023-03-31T00:49:40.530Z,5.90
2023-03-31T00:52:13.607Z,5.78
2023-03-31T00:57:09.321Z,7.15
2023-03-31T01:02:08.730Z,5.75
2023-03-31T01:04:38.384Z,6.53
2023-03-31T01:07:17.190Z,5.43
2023-03-31T01:09:47.842Z,6.82
2023-03-31T01:12:15.596Z,6.60
2023-03-31T01:14:42.251Z,6.45
2023-03-31T01:17:09.947Z,6.75
2023-03-31T01:19:42.793Z,6.30
2023-03-31T01:22:15.401Z,5.95
2023-03-31T01:24:47.451Z,5.95
2023-03-31T01:27:17.233Z,7.55
2023-03-31T01:29:43.847Z,6.28
2023-03-31T01:35:06.194Z,6.60
2023-03-31T01:37:43.454Z,6.30
2023-03-31T01:40:13.143Z,6.13
2023-03-31T01:42:40.410Z,6.55
2023-03-31T01:45:19.155Z,7.15
2023-03-31T01:47:48.964Z,7.30
2023-03-31T01:50:19.410Z,7.07
2023-03-31T01:52:46.084Z,7.55
2023-03-31T01:55:16.321Z,6.43
2023-03-31T02:00:15.835Z,8.35
2023-03-31T02:15:36.533Z,7.97
2023-03-31T02:18:06.331Z,7.63
2023-03-31T02:20:33.924Z,9.30
2023-03-31T02:23:00.913Z,7.70
2023-03-31T02:25:32.546Z,8.55
2023-03-31T02:28:05.370Z,8.25
2023-03-31T02:30:43.650Z,8.43
2023-03-31T02:40:28.546Z,8.35
2023-03-31T02:42:55.288Z,8.85
2023-03-31T02:48:14.848Z,9.02
2023-03-31T02:53:40.580Z,7.93
2023-03-31T02:56:13.271Z,8.77
2023-03-31T02:59:12.551Z,8.50
2023-03-31T03:01:44.778Z,7.43
2023-03-31T03:07:03.685Z,7.72
2023-03-31T03:12:05.874Z,6.28
2023-03-31T03:19:51.514Z,6.47
2023-03-31T03:22:18.293Z,6.90
2023-03-31T03:24:45.089Z,7.57
2023-03-31T03:27:11.727Z,6.38
2023-03-31T03:29:38.409Z,6.72
2023-03-31T03:32:05.113Z,6.03
2023-03-31T03:36:57.140Z,7.82
2023-03-31T03:39:23.902Z,6.60
2023-03-31T03:41:50.643Z,8.07
2023-03-31T03:44:17.262Z,7.03
2023-03-31T03:46:43.978Z,6.50
2023-03-31T03:49:10.713Z,6.95
2023-03-31T03:54:02.796Z,6.97
2023-03-31T04:04:23.389Z,6.47
2023-03-31T04:06:50.584Z,6.30
2023-03-31T04:09:17.322Z,5.80
2023-03-31T04:11:43.993Z,5.40
2023-03-31T04:14:10.809Z,4.78
2023-03-31T04:16:38.634Z,4.93
2023-03-31T04:19:05.413Z,4.50
2023-03-31T04:24:04.580Z,4.05
2023-03-31T04:29:09.609Z,4.13
2023-03-31T04:31:38.898Z,4.05
2023-03-31T04:34:06.975Z,3.45
2023-03-31T04:41:30.036Z,4.22
2023-03-31T04:43:56.775Z,3.65
2023-03-31T04:46:23.499Z,3.80
2023-03-31T04:48:50.286Z,3.58
2023-03-31T04:51:16.996Z,3.78
2023-03-31T04:53:43.721Z,3.25
2023-03-31T04:56:10.803Z,4.53
2023-03-31T04:58:37.482Z,3.65
2023-03-31T05:03:32.563Z,3.75
2023-03-31T05:05:59.441Z,4.13
2023-03-31T05:08:27.193Z,4.13
2023-03-31T05:10:53.904Z,4.93
2023-03-31T05:13:20.600Z,4.68
2023-03-31T05:18:16.440Z,4.90
2023-03-31T05:20:43.148Z,4.53
2023-03-31T05:25:35.418Z,5.50
2023-03-31T05:28:02.558Z,4.43
2023-03-31T05:30:29.888Z,5.57
2023-03-31T05:32:57.085Z,4.65
2023-03-31T05:35:24.173Z,4.63
2023-03-31T05:42:42.236Z,4.10
2023-03-31T05:45:09.447Z,4.65
2023-03-31T05:47:36.976Z,4.40
2023-03-31T05:50:07.681Z,4.75
2023-03-31T05:55:00.501Z,4.13
2023-03-31T05:57:27.223Z,4.30
2023-03-31T06:02:19.381Z,5.53
2023-03-31T06:04:46.136Z,3.35
2023-03-31T06:07:13.468Z,5.05
2023-03-31T06:12:05.786Z,4.72
2023-03-31T06:14:32.482Z,4.47
2023-03-31T06:16:59.173Z,4.80
2023-03-31T06:19:25.974Z,4.63
2023-03-31T06:21:52.606Z,5.10
2023-03-31T06:24:19.309Z,5.60
2023-03-31T06:26:45.963Z,4.55
2023-03-31T06:29:12.619Z,4.40
2023-03-31T06:31:39.445Z,4.80
2023-03-31T06:34:06.788Z,4.45
2023-03-31T06:36:33.478Z,4.43
2023-03-31T06:46:17.920Z,4.82
2023-03-31T06:48:44.708Z,5.07
2023-03-31T06:51:15.832Z,3.45
2023-03-31T06:53:42.472Z,3.63
2023-03-31T06:56:09.626Z,4.05
2023-03-31T06:58:36.744Z,3.15
2023-03-31T07:05:56.271Z,4.35
2023-03-31T07:18:08.015Z,4.40
2023-03-31T07:20:34.766Z,4.45
2023-03-31T07:23:04.227Z,3.67
2023-03-31T07:28:07.062Z,4.28
2023-03-31T07:30:33.895Z,2.53
2023-03-31T07:33:01.903Z,4.72
2023-03-31T07:37:54.395Z,3.72
2023-03-31T07:40:22.741Z,3.63
2023-03-31T07:42:49.847Z,3.90
2023-03-31T07:45:16.962Z,3.80
2023-03-31T07:47:44.913Z,3.83
2023-03-31T07:52:37.047Z,3.40
2023-03-31T07:55:04.220Z,2.95
2023-03-31T07:57:31.163Z,3.47
2023-03-31T07:59:57.954Z,3.28
2023-03-31T08:02:24.850Z,3.33
2023-03-31T08:12:08.396Z,2.70
2023-03-31T08:14:41.089Z,3.20
2023-03-31T08:17:09.336Z,3.15
2023-03-31T08:19:36.128Z,4.00
2023-03-31T08:22:02.888Z,3.80
2023-03-31T08:29:20.478Z,2.80
2023-03-31T08:31:47.261Z,3.03
2023-03-31T08:36:39.557Z,2.50
2023-03-31T08:39:07.558Z,2.35
2023-03-31T08:41:42.929Z,2.75
2023-03-31T08:44:13.514Z,3.13
2023-03-31T08:46:41.532Z,2.75
2023-03-31T08:54:08.184Z,3.72
2023-03-31T08:56:39.344Z,3.90
2023-03-31T08:59:07.102Z,3.63
2023-03-31T09:01:47.906Z,3.00
2023-03-31T09:04:40.921Z,2.15
2023-03-31T09:07:07.689Z,2.67
2023-03-31T09:09:34.357Z,3.72
2023-03-31T09:17:03.661Z,2.42
2023-03-31T09:19:30.388Z,3.22
2023-03-31T09:21:57.173Z,2.95
2023-03-31T09:24:29.316Z,2.00
2023-03-31T09:26:58.740Z,2.92
2023-03-31T09:32:17.077Z,3.70
2023-03-31T09:34:44.769Z,3.10
2023-03-31T09:37:11.577Z,3.65
2023-03-31T09:39:38.826Z,4.32
2023-03-31T09:42:05.821Z,3.53
2023-03-31T09:44:39.825Z,3.33
2023-03-31T09:47:11.200Z,2.55
2023-03-31T09:49:39.113Z,2.15
2023-03-31T09:54:50.337Z,3.70
2023-03-31T09:57:31.214Z,3.22
2023-03-31T10:00:12.875Z,3.38
2023-03-31T10:02:41.655Z,3.55
2023-03-31T10:05:19.069Z,3.30
2023-03-31T10:07:46.361Z,2.72
2023-03-31T10:10:25.217Z,4.05
2023-03-31T10:12:52.902Z,2.90
2023-03-31T10:15:25.873Z,3.60
2023-03-31T10:17:55.451Z,3.55
2023-03-31T10:20:38.307Z,3.90
2023-03-31T10:25:40.320Z,5.00
2023-03-31T10:28:06.988Z,3.85
2023-03-31T10:33:15.137Z,3.50
2023-03-31T10:35:50.194Z,2.67
2023-03-31T10:38:25.077Z,2.47
2023-03-31T10:40:53.022Z,2.78
2023-03-31T10:43:49.045Z,3.03
2023-03-31T10:51:11.596Z,2.78
2023-03-31T10:53:41.298Z,2.92
2023-03-31T10:56:14.699Z,2.45
2023-03-31T10:58:58.393Z,2.97
2023-03-31T11:03:57.910Z,2.83
2023-03-31T11:11:48.060Z,3.00
2023-03-31T11:14:24.796Z,3.42
2023-03-31T11:17:04.950Z,3.38
2023-03-31T11:19:34.472Z,3.47
2023-03-31T11:22:12.902Z,2.75
2023-03-31T11:24:42.776Z,3.00
2023-03-31T11:27:12.496Z,3.35
2023-03-31T11:29:48.327Z,4.05
2023-03-31T11:32:21.366Z,2.58
2023-03-31T11:34:48.918Z,3.58
2023-03-31T11:37:19.645Z,3.58
2023-03-31T11:44:43.003Z,4.35
2023-03-31T11:47:12.718Z,4.85
2023-03-31T11:49:41.644Z,3.78
2023-03-31T11:52:15.490Z,3.75
2023-03-31T11:54:48.265Z,3.55
2023-03-31T11:59:48.442Z,3.58
2023-03-31T12:02:32.262Z,3.28
2023-03-31T12:10:15.882Z,2.65
2023-03-31T12:12:46.205Z,2.38
2023-03-31T12:30:52.090Z,3.95
2023-03-31T12:33:22.345Z,2.28
2023-03-31T12:35:57.896Z,3.85
2023-03-31T12:38:43.367Z,4.15
2023-03-31T12:41:20.173Z,3.65
2023-03-31T12:43:53.783Z,3.65
2023-03-31T12:49:01.013Z,5.47
2023-03-31T12:54:02.085Z,5.47
2023-03-31T12:56:30.912Z,4.93
2023-03-31T13:02:09.383Z,3.40
2023-03-31T13:09:31.769Z,4.70
2023-03-31T13:11:58.512Z,4.38
2023-03-31T13:14:28.599Z,3.90
2023-03-31T13:17:12.207Z,3.70
2023-03-31T13:20:06.820Z,4.05
2023-03-31T13:22:35.192Z,2.67
2023-03-31T13:25:20.917Z,3.85
2023-03-31T13:46:04.489Z,3.75
2023-03-31T13:48:39.227Z,4.57
2023-03-31T13:53:46.697Z,5.30
2023-03-31T14:01:39.750Z,4.35
2023-03-31T14:04:06.459Z,4.68
2023-03-31T14:06:33.066Z,3.72
2023-03-31T14:09:26.312Z,5.38
2023-03-31T14:11:53.085Z,3.67
2023-03-31T14:14:19.770Z,4.22
2023-03-31T14:16:46.376Z,4.72
2023-03-31T14:19:31.446Z,3.15
2023-03-31T14:24:36.942Z,4.05
2023-03-31T14:37:17.989Z,4.00
2023-03-31T14:39:46.383Z,4.15
2023-03-31T14:50:13.338Z,3.88
2023-03-31T14:52:41.091Z,3.55
2023-03-31T14:55:13.962Z,5.00
2023-03-31T14:57:41.526Z,4.43
2023-03-31T15:00:10.002Z,5.28
2023-03-31T15:12:23.598Z,5.03
2023-03-31T15:14:51.952Z,5.03
2023-03-31T15:17:22.737Z,3.95
2023-03-31T15:19:57.203Z,4.22
2023-03-31T15:22:26.104Z,3.25
2023-03-31T15:24:53.249Z,4.40
2023-03-31T15:27:29.970Z,3.42
2023-03-31T15:30:04.566Z,3.97
2023-03-31T15:37:32.899Z,3.85
2023-03-31T15:40:01.017Z,4.50
2023-03-31T15:42:28.082Z,4.55
2023-03-31T15:44:55.969Z,3.65
2023-03-31T15:47:29.658Z,3.90
2023-03-31T15:50:08.168Z,3.92
2023-03-31T15:52:36.151Z,4.18
2023-03-31T15:55:22.765Z,4.25
2023-03-31T16:05:43.768Z,3.83
2023-03-31T16:11:30.025Z,4.65
2023-03-31T16:13:59.440Z,4.85
2023-03-31T16:16:27.343Z,3.60
2023-03-31T16:19:04.634Z,5.13
2023-03-31T16:21:39.127Z,4.45
2023-03-31T16:26:31.482Z,5.45
2023-03-31T16:28:58.207Z,4.88
2023-03-31T16:31:34.717Z,4.70
2023-03-31T16:34:02.574Z,4.78
2023-03-31T16:36:29.279Z,4.18
2023-03-31T16:41:23.357Z,4.07
2023-03-31T16:43:52.609Z,3.10
2023-03-31T16:51:10.418Z,4.20
2023-03-31T16:53:37.323Z,3.65
2023-03-31T16:56:04.744Z,3.67
2023-03-31T16:58:31.619Z,3.70
2023-03-31T17:00:58.374Z,4.13
2023-03-31T17:03:25.297Z,4.03
2023-03-31T17:05:55.651Z,4.22
2023-03-31T17:08:24.628Z,3.38
2023-03-31T17:11:15.086Z,4.32
2023-03-31T17:13:42.733Z,3.75
2023-03-31T17:16:20.327Z,3.55
2023-03-31T17:18:53.731Z,3.78
2023-03-31T17:21:20.477Z,3.95
2023-03-31T17:23:47.660Z,3.47
2023-03-31T17:28:40.534Z,5.47
2023-03-31T17:31:17.506Z,4.60
2023-03-31T17:33:44.415Z,3.38
2023-03-31T17:36:11.605Z,4.05
2023-03-31T17:38:42.102Z,5.15
2023-03-31T17:41:11.162Z,4.43
2023-03-31T17:43:38.264Z,5.63
2023-03-31T17:46:06.374Z,3.63
2023-03-31T17:48:41.036Z,4.45
2023-03-31T17:53:35.613Z,5.15
2023-03-31T17:56:03.580Z,4.10
2023-03-31T18:03:22.101Z,4.55
2023-03-31T18:05:49.200Z,4.10
2023-03-31T18:08:16.022Z,4.10
2023-03-31T18:10:43.058Z,4.30
2023-03-31T18:15:35.841Z,4.60
2023-03-31T18:18:02.781Z,3.42
2023-03-31T18:25:20.751Z,4.80
2023-03-31T18:35:06.477Z,5.05
2023-03-31T18:37:33.983Z,4.65
2023-03-31T18:40:01.634Z,4.60
2023-03-31T18:42:28.379Z,5.22
2023-03-31T18:44:55.032Z,4.18
2023-03-31T18:47:21.812Z,4.65
2023-03-31T18:49:53.462Z,4.82
2023-03-31T18:52:20.221Z,4.30
2023-03-31T18:54:47.065Z,4.90
2023-03-31T18:57:13.764Z,4.55
2023-03-31T18:59:40.431Z,4.82
2023-03-31T19:02:07.480Z,4.38
2023-03-31T19:04:34.253Z,4.25
2023-03-31T19:07:01.394Z,4.03
2023-03-31T19:09:28.149Z,4.43
2023-03-31T19:11:55.012Z,5.50
2023-03-31T19:14:22.326Z,4.70
2023-03-31T19:16:49.486Z,5.43
2023-03-31T19:21:42.845Z,4.97
2023-03-31T19:24:09.760Z,4.15
2023-03-31T19:26:37.331Z,5.05
2023-03-31T19:29:05.337Z,3.55
2023-03-31T19:34:04.764Z,4.32
2023-03-31T19:36:31.784Z,4.53
2023-03-31T19:46:18.526Z,5.35
2023-03-31T19:48:47.803Z,5.88
2023-03-31T19:51:14.531Z,4.65
2023-03-31T19:53:41.298Z,5.30
2023-03-31T19:56:12.022Z,4.80
2023-03-31T19:58:39.232Z,7.25
2023-03-31T20:01:07.663Z,3.33
2023-03-31T20:03:34.836Z,4.93
2023-03-31T20:16:02.913Z,5.00
2023-03-31T20:28:29.073Z,4.80
2023-03-31T20:30:58.864Z,4.53
2023-03-31T20:33:26.336Z,4.13
2023-03-31T20:38:28.527Z,3.87
2023-03-31T20:40:55.752Z,4.30
2023-03-31T20:45:57.879Z,4.32
2023-03-31T20:48:25.785Z,3.60
2023-03-31T20:50:53.140Z,4.03
2023-03-31T20:53:19.812Z,3.05
2023-03-31T20:55:46.613Z,4.20
2023-03-31T20:58:13.484Z,3.97
2023-03-31T21:00:40.539Z,5.40
2023-03-31T21:03:07.346Z,5.93
2023-03-31T21:05:40.596Z,4.07
2023-03-31T21:08:07.406Z,4.72
2023-03-31T21:10:39.051Z,4.05
2023-03-31T21:13:05.910Z,4.45
2023-03-31T21:22:57.395Z,4.03
2023-03-31T21:25:24.879Z,4.45
2023-03-31T21:30:17.852Z,3.65
2023-03-31T21:32:45.241Z,3.78
2023-03-31T21:35:12.317Z,4.13
2023-03-31T21:37:38.971Z,4.28
2023-03-31T21:40:06.272Z,3.80
2023-03-31T21:42:34.554Z,3.65
2023-03-31T21:45:01.300Z,3.15
2023-03-31T21:47:28.502Z,4.18
2023-03-31T21:49:55.290Z,3.95
2023-03-31T21:55:24.659Z,4.07
2023-03-31T21:57:51.396Z,3.95
2023-03-31T22:00:18.288Z,3.83
2023-03-31T22:07:36.896Z,2.65
2023-03-31T22:10:04.030Z,3.70
2023-03-31T22:12:30.927Z,3.90
2023-03-31T22:14:57.595Z,4.10
2023-03-31T22:17:24.672Z,3.35
2023-03-31T22:22:17.017Z,3.67
2023-03-31T22:24:43.776Z,2.35
2023-03-31T22:27:10.626Z,3.35
2023-03-31T22:29:37.559Z,2.92
2023-03-31T22:32:04.460Z,3.33
2023-03-31T22:36:57.537Z,2.88
2023-03-31T22:39:24.357Z,3.10
2023-03-31T22:47:19.834Z,2.70
2023-03-31T22:49:46.942Z,3.17
2023-03-31T22:52:13.607Z,3.15
2023-03-31T22:54:41.228Z,3.63
2023-03-31T22:57:08.463Z,3.67
2023-03-31T22:59:36.286Z,3.20
2023-03-31T23:02:03.596Z,3.72
2023-03-31T23:04:34.248Z,3.67
2023-03-31T23:07:00.925Z,3.38
2023-03-31T23:09:28.069Z,3.63
2023-03-31T23:11:54.964Z,3.58
2023-03-31T23:14:22.900Z,3.22
2023-03-31T23:16:49.760Z,2.75
2023-03-31T23:19:18.489Z,3.20
2023-03-31T23:21:45.408Z,2.92
2023-03-31T23:24:12.480Z,4.10
2023-03-31T23:26:39.258Z,2.90
2023-03-31T23:29:06.198Z,3.17
2023-03-31T23:31:33.253Z,3.05
2023-03-31T23:34:00.469Z,3.45
2023-03-31T23:36:28.011Z,3.42
2023-03-31T23:41:22.911Z,3.30
2023-03-31T23:43:51.019Z,3.22
2023-03-31T23:46:17.904Z,3.20
2023-03-31T23:53:35.971Z,3.28
2023-03-31T23:58:30.148Z,4.05
